Time;durP1;ratioP1;P1;durP2;ratioP2;P2;SDS_P1;SDS_P2;PMS_P1;PMS_P2;Temp;Humidity;BMP_temperature;BMP_pressure;BME280_temperature;BME280_humidity;BME280_pressure;Samples;Min_cycle;Max_cycle;Signal;HPM_P1;HPM_P2
2022/08/25 00:00:06;;;;;;;1.80;1.70;;;25.70;59.00;;;;;;5053228;28;20202;-74
2022/08/25 00:02:31;;;;;;;2.45;1.80;;;25.70;58.90;;;;;;5053693;28;20612;-74
2022/08/25 00:04:57;;;;;;;1.77;1.67;;;25.70;58.90;;;;;;5053113;28;20210;-74
2022/08/25 00:07:22;;;;;;;1.73;1.63;;;25.70;58.90;;;;;;5053706;28;20263;-74
2022/08/25 00:09:48;;;;;;;1.70;1.60;;;25.70;59.60;;;;;;5053191;28;20266;-74
2022/08/25 00:12:13;;;;;;;1.73;1.63;;;25.70;58.90;;;;;;5053144;28;20248;-73
2022/08/25 00:14:39;;;;;;;1.75;1.65;;;25.70;58.90;;;;;;5053411;28;20179;-72
2022/08/25 00:17:05;;;;;;;1.77;1.67;;;25.70;58.90;;;;;;5053006;28;20171;-73
2022/08/25 00:19:33;;;;;;;1.88;1.77;;;25.60;58.90;;;;;;5052852;28;20183;-73
2022/08/25 00:21:59;;;;;;;1.80;1.70;;;25.70;58.90;;;;;;5053116;28;20356;-75
2022/08/25 00:24:25;;;;;;;1.60;1.50;;;25.70;58.90;;;;;;5053159;28;20680;-73
2022/08/25 00:26:53;;;;;;;2.10;1.73;;;25.70;58.90;;;;;;5052748;28;20262;-73
2022/08/25 00:29:19;;;;;;;1.65;1.58;;;25.70;58.90;;;;;;5053042;28;20648;-73
2022/08/25 00:31:45;;;;;;;1.75;1.65;;;25.70;58.90;;;;;;5053018;28;20631;-76
2022/08/25 00:34:13;;;;;;;2.15;1.80;;;25.70;58.80;;;;;;5052711;28;20213;-75
2022/08/25 00:36:39;;;;;;;1.80;1.70;;;25.70;58.80;;;;;;5053084;28;20651;-75
2022/08/25 00:39:06;;;;;;;1.80;1.70;;;25.70;58.80;;;;;;5052704;28;20267;-75
2022/08/25 00:41:34;;;;;;;1.90;1.77;;;25.70;58.80;;;;;;5052435;28;20201;-72
2022/08/25 00:44:00;;;;;;;1.83;1.73;;;25.60;58.80;;;;;;5052799;28;20198;-74
2022/08/25 00:46:28;;;;;;;2.03;1.92;;;25.60;58.80;;;;;;5052659;28;20198;-73
2022/08/25 00:48:59;;;;;;;1.77;1.67;;;25.60;58.80;;;;;;5052327;28;20525;-73
2022/08/25 00:51:47;;;;;;;1.88;1.77;;;25.70;58.80;;;;;;5051862;28;20264;-73
2022/08/25 00:54:53;;;;;;;2.25;1.75;;;25.70;58.80;;;;;;5051830;28;20187;-75
2022/08/25 00:57:23;;;;;;;1.88;1.77;;;25.60;58.80;;;;;;5051209;28;20183;-74
2022/08/25 00:59:49;;;;;;;2.00;1.90;;;25.60;58.80;;;;;;5051153;28;20182;-74
2022/08/25 01:02:15;;;;;;;1.70;1.60;;;25.60;58.70;;;;;;5034520;28;20179;-73
2022/08/25 01:04:42;;;;;;;1.80;1.70;;;25.60;58.70;;;;;;5052497;28;20507;-73
2022/08/25 01:07:07;;;;;;;2.00;1.90;;;25.60;58.70;;;;;;5052144;28;20210;-73
2022/08/25 01:09:33;;;;;;;2.00;1.90;;;25.60;58.70;;;;;;5050932;28;20213;-72
2022/08/25 01:11:59;;;;;;;1.88;1.77;;;25.60;58.70;;;;;;5034427;28;20175;-73
2022/08/25 01:14:24;;;;;;;2.00;1.90;;;25.60;58.70;;;;;;5052274;28;20175;-73
2022/08/25 01:16:51;;;;;;;2.67;1.90;;;25.60;58.70;;;;;;5034108;28;20258;-73
2022/08/25 01:19:17;;;;;;;2.10;2.00;;;25.60;58.70;;;;;;5052431;28;20186;-73
2022/08/25 01:21:48;;;;;;;2.15;1.65;;;25.60;58.70;;;;;;5051903;28;20594;-72
2022/08/25 01:24:30;;;;;;;2.10;2.00;;;25.60;58.70;;;;;;5052083;28;20179;-74
2022/08/25 01:26:55;;;;;;;2.03;1.92;;;25.60;58.60;;;;;;5036357;28;20171;-74
2022/08/25 01:29:21;;;;;;;1.88;1.77;;;25.50;58.60;;;;;;5051684;28;20240;-74
2022/08/25 01:31:48;;;;;;;2.08;1.88;;;25.60;58.80;;;;;;5052041;28;20198;-76
2022/08/25 01:34:14;;;;;;;1.95;1.58;;;25.60;58.60;;;;;;5051910;28;20230;-75
2022/08/25 01:36:40;;;;;;;2.28;2.05;;;25.60;58.60;;;;;;5051849;28;20171;-75
2022/08/25 01:39:06;;;;;;;1.90;1.80;;;25.60;58.60;;;;;;5052173;28;20179;-76
2022/08/25 01:41:54;;;;;;;2.25;2.05;;;25.60;58.60;;;;;;5051920;28;20285;-73
2022/08/25 01:44:19;;;;;;;1.95;1.80;;;25.60;58.60;;;;;;5050495;28;20171;-73
2022/08/25 01:46:45;;;;;;;2.25;2.03;;;25.60;58.60;;;;;;5051866;28;20183;-73
2022/08/25 01:49:10;;;;;;;1.90;1.80;;;25.60;58.60;;;;;;5052092;28;20182;-73
2022/08/25 01:51:43;;;;;;;1.75;1.65;;;25.60;58.60;;;;;;5051620;28;20179;-73
2022/08/25 01:54:09;;;;;;;2.38;1.80;;;25.50;58.50;;;;;;5050783;28;20214;-75
2022/08/25 01:56:35;;;;;;;2.00;1.80;;;25.60;58.60;;;;;;5051688;28;20175;-73
2022/08/25 01:59:00;;;;;;;2.22;2.03;;;25.60;58.60;;;;;;5053000;28;20175;-74
2022/08/25 02:01:26;;;;;;;2.03;1.92;;;25.60;58.50;;;;;;5055981;28;20202;-73
2022/08/25 02:03:53;;;;;;;2.03;1.83;;;25.50;58.50;;;;;;5055859;28;20249;-73
2022/08/25 02:06:26;;;;;;;2.40;2.10;;;25.60;59.10;;;;;;5055599;28;20210;-74
2022/08/25 02:08:52;;;;;;;2.00;1.90;;;25.60;58.50;;;;;;5055880;28;20258;-73
2022/08/25 02:11:18;;;;;;;2.42;1.75;;;25.50;58.40;;;;;;5055596;28;20235;-73
2022/08/25 02:13:44;;;;;;;1.98;1.83;;;25.50;58.40;;;;;;5054901;28;20244;-72
2022/08/25 02:16:09;;;;;;;2.00;1.90;;;25.60;58.40;;;;;;5055813;28;20205;-74
2022/08/25 02:18:35;;;;;;;1.88;1.77;;;25.50;58.50;;;;;;5055104;28;20175;-74
2022/08/25 02:21:01;;;;;;;2.03;1.90;;;25.50;58.40;;;;;;5055432;28;20310;-73
2022/08/25 02:23:27;;;;;;;2.30;2.10;;;25.50;58.40;;;;;;5055431;28;20629;-72
2022/08/25 02:25:52;;;;;;;2.35;2.15;;;25.50;58.40;;;;;;5054900;28;20575;-74
2022/08/25 02:28:18;;;;;;;2.13;1.92;;;25.50;58.40;;;;;;5055560;28;20225;-74
2022/08/25 02:30:43;;;;;;;1.95;1.85;;;25.50;58.40;;;;;;5055214;28;20624;-73
2022/08/25 02:33:09;;;;;;;2.03;1.83;;;25.50;58.40;;;;;;5054861;28;20211;-74
2022/08/25 02:35:35;;;;;;;1.90;1.80;;;25.50;58.40;;;;;;5055267;28;20182;-73
2022/08/25 02:38:00;;;;;;;2.17;1.98;;;25.50;58.40;;;;;;5055041;28;20171;-76
2022/08/25 02:40:26;;;;;;;2.20;2.10;;;25.50;58.40;;;;;;5054855;28;20253;-74
2022/08/25 02:42:52;;;;;;;2.35;2.17;;;25.50;58.40;;;;;;5055001;28;20270;-73
2022/08/25 02:45:17;;;;;;;2.00;1.90;;;25.50;58.40;;;;;;5055311;28;20167;-73
2022/08/25 02:47:43;;;;;;;2.17;2.00;;;25.50;58.40;;;;;;5054812;28;20277;-73
2022/08/25 02:50:09;;;;;;;2.22;2.10;;;25.50;58.40;;;;;;5055283;28;20175;-75
2022/08/25 02:52:35;;;;;;;2.38;2.20;;;25.50;58.30;;;;;;5054679;28;20203;-73
2022/08/25 02:55:04;;;;;;;2.50;2.30;;;25.50;58.30;;;;;;5054397;28;20258;-74
2022/08/25 02:57:30;;;;;;;2.35;2.17;;;25.50;58.30;;;;;;5055189;28;20179;-73
2022/08/25 02:59:56;;;;;;;2.22;2.10;;;25.50;58.30;;;;;;5054808;28;20174;-73
2022/08/25 03:02:23;;;;;;;1.95;1.85;;;25.50;58.30;;;;;;5054573;28;20206;-74
2022/08/25 03:04:49;;;;;;;2.35;2.17;;;25.50;58.30;;;;;;5054910;28;20232;-73
2022/08/25 03:07:16;;;;;;;2.00;1.90;;;25.50;58.30;;;;;;5054991;28;20172;-73
2022/08/25 03:09:41;;;;;;;2.38;2.17;;;25.50;58.30;;;;;;5054162;28;20179;-72
2022/08/25 03:12:08;;;;;;;2.13;1.95;;;25.50;58.30;;;;;;5054365;28;20171;-74
2022/08/25 03:14:33;;;;;;;2.20;2.00;;;25.50;58.30;;;;;;5054739;28;20262;-73
2022/08/25 03:16:59;;;;;;;2.33;2.13;;;25.40;58.20;;;;;;5054110;28;20298;-73
2022/08/25 03:19:25;;;;;;;2.85;2.33;;;25.50;58.20;;;;;;5054434;28;20197;-74
2022/08/25 03:21:54;;;;;;;2.45;2.35;;;25.50;58.20;;;;;;5053635;28;20250;-75
2022/08/25 03:24:20;;;;;;;2.40;2.20;;;25.50;58.20;;;;;;5054317;28;20175;-75
2022/08/25 03:26:55;;;;;;;2.20;2.10;;;25.40;58.10;;;;;;5054193;28;20187;-74
2022/08/25 03:29:31;;;;;;;2.95;2.47;;;25.50;58.20;;;;;;5053948;28;20174;-74
2022/08/25 03:31:58;;;;;;;2.20;2.00;;;25.50;58.20;;;;;;5054183;28;20545;-76
2022/08/25 03:34:23;;;;;;;2.38;2.17;;;25.50;58.20;;;;;;5054078;28;20194;-76
2022/08/25 03:36:50;;;;;;;2.63;2.03;;;25.40;58.10;;;;;;5053535;28;20175;-75
2022/08/25 03:39:17;;;;;;;2.47;2.25;;;25.40;58.10;;;;;;5054535;28;20254;-75
2022/08/25 03:41:42;;;;;;;2.25;2.05;;;25.40;58.10;;;;;;5053933;28;20703;-73
2022/08/25 03:44:08;;;;;;;2.38;2.17;;;25.40;58.10;;;;;;5053428;28;20211;-73
2022/08/25 03:46:37;;;;;;;2.88;2.30;;;25.50;58.10;;;;;;5054262;28;20174;-73
2022/08/25 03:49:04;;;;;;;2.65;2.13;;;25.40;58.10;;;;;;5053737;28;20190;-74
2022/08/25 03:51:34;;;;;;;2.30;2.10;;;25.40;58.00;;;;;;5053576;28;20245;-72
2022/08/25 03:53:59;;;;;;;2.40;2.20;;;25.40;58.00;;;;;;5054101;28;20248;-75
2022/08/25 03:56:26;;;;;;;2.15;2.05;;;25.40;58.00;;;;;;5053699;28;20176;-75
2022/08/25 03:58:52;;;;;;;2.30;2.20;;;25.40;58.00;;;;;;5053454;28;20511;-74
2022/08/25 04:01:17;;;;;;;2.55;2.40;;;25.40;58.00;;;;;;5053699;28;20233;-74
2022/08/25 04:03:43;;;;;;;2.50;2.30;;;25.40;58.00;;;;;;5054028;28;20680;-73
2022/08/25 04:06:08;;;;;;;2.50;2.30;;;25.40;58.00;;;;;;5053156;28;20666;-74
2022/08/25 04:08:35;;;;;;;2.80;2.60;;;25.40;58.60;;;;;;5053280;28;20175;-74
2022/08/25 04:11:14;;;;;;;2.50;2.28;;;25.40;58.00;;;;;;5053398;28;20271;-73
2022/08/25 04:13:44;;;;;;;2.30;2.20;;;25.40;58.00;;;;;;5053447;28;20688;-71
2022/08/25 04:16:15;;;;;;;2.20;2.05;;;25.40;58.00;;;;;;5053472;28;20199;-74
2022/08/25 04:18:41;;;;;;;2.85;2.55;;;25.40;57.90;;;;;;5052924;28;20174;-74
2022/08/25 04:21:08;;;;;;;2.58;2.38;;;25.40;57.90;;;;;;5052828;28;20581;-73
2022/08/25 04:23:34;;;;;;;2.50;2.30;;;25.40;58.00;;;;;;5053162;28;20183;-73
2022/08/25 04:26:00;;;;;;;2.28;2.17;;;25.40;58.00;;;;;;5052774;28;20265;-74
2022/08/25 04:28:25;;;;;;;2.42;2.22;;;25.40;58.00;;;;;;5053165;28;20182;-74
2022/08/25 04:30:51;;;;;;;2.35;2.08;;;25.40;58.00;;;;;;5052994;28;20622;-73
2022/08/25 04:33:16;;;;;;;2.67;2.45;;;25.40;57.90;;;;;;5052559;28;20199;-74
2022/08/25 04:35:47;;;;;;;2.88;2.63;;;25.40;57.90;;;;;;5053345;28;20171;-73
2022/08/25 04:38:12;;;;;;;2.47;2.28;;;25.40;57.90;;;;;;5053021;28;20187;-76
2022/08/25 04:40:38;;;;;;;2.30;2.20;;;25.40;57.90;;;;;;5052521;28;20518;-75
2022/08/25 04:43:03;;;;;;;3.10;2.85;;;25.30;57.80;;;;;;5052935;28;20548;-73
2022/08/25 04:45:29;;;;;;;2.38;2.17;;;25.40;57.90;;;;;;5052700;28;20652;-73
2022/08/25 04:47:58;;;;;;;2.95;2.50;;;25.40;57.90;;;;;;5052274;28;20182;-74
2022/08/25 04:50:24;;;;;;;2.55;2.35;;;25.40;57.90;;;;;;5052792;28;20201;-74
2022/08/25 04:52:49;;;;;;;2.60;2.40;;;25.40;57.80;;;;;;5052766;28;20203;-74
2022/08/25 04:55:17;;;;;;;3.40;2.92;;;25.30;57.80;;;;;;5052363;28;20179;-74
2022/08/25 04:57:42;;;;;;;2.42;2.28;;;25.40;57.90;;;;;;5052562;28;20518;-73
2022/08/25 05:00:08;;;;;;;2.95;2.60;;;25.40;57.80;;;;;;5052515;28;20629;-73
2022/08/25 05:02:34;;;;;;;2.75;2.55;;;25.40;57.80;;;;;;5051994;28;20179;-73
2022/08/25 05:05:00;;;;;;;3.25;2.42;;;25.40;57.80;;;;;;5052373;28;20171;-72
2022/08/25 05:07:25;;;;;;;3.38;2.45;;;25.40;57.80;;;;;;5052229;28;20229;-73
2022/08/25 05:09:51;;;;;;;2.45;2.25;;;25.40;57.80;;;;;;5052570;28;20579;-73
2022/08/25 05:12:17;;;;;;;3.33;2.67;;;25.30;57.70;;;;;;5052565;28;20171;-73
2022/08/25 05:14:42;;;;;;;3.45;2.60;;;25.40;57.80;;;;;;5052134;28;20293;-72
2022/08/25 05:17:08;;;;;;;2.80;2.60;;;25.40;57.70;;;;;;5052260;28;20259;-73
2022/08/25 05:19:34;;;;;;;2.53;2.40;;;25.40;57.70;;;;;;5052424;28;20189;-73
2022/08/25 05:22:00;;;;;;;2.30;2.20;;;25.30;57.60;;;;;;5051735;28;20244;-73
2022/08/25 05:24:26;;;;;;;3.60;3.00;;;25.40;57.70;;;;;;5052402;28;20177;-73
2022/08/25 05:26:52;;;;;;;2.33;2.22;;;25.40;57.70;;;;;;5051945;28;20186;-72
2022/08/25 05:29:18;;;;;;;2.92;2.72;;;25.40;57.70;;;;;;5051754;28;20179;-72
2022/08/25 05:31:44;;;;;;;3.78;2.70;;;25.30;57.60;;;;;;5052175;28;20179;-73
2022/08/25 05:34:10;;;;;;;4.07;2.58;;;25.40;57.70;;;;;;5051446;28;20213;-73
2022/08/25 05:36:37;;;;;;;2.25;2.15;;;25.40;57.70;;;;;;5052279;28;20175;-73
2022/08/25 05:39:03;;;;;;;2.60;2.40;;;25.40;57.70;;;;;;5052633;28;20190;-73
2022/08/25 05:41:29;;;;;;;2.75;2.55;;;25.40;57.60;;;;;;5052376;28;20174;-72
2022/08/25 05:43:54;;;;;;;2.60;2.40;;;25.40;57.60;;;;;;5051882;28;20179;-72
2022/08/25 05:46:20;;;;;;;2.78;2.58;;;25.40;57.60;;;;;;5052504;28;20175;-72
2022/08/25 05:48:46;;;;;;;2.97;2.67;;;25.40;57.60;;;;;;5052382;28;20171;-72
2022/08/25 05:51:12;;;;;;;3.00;2.75;;;25.40;57.60;;;;;;5052370;28;20690;-72
2022/08/25 05:53:38;;;;;;;2.85;2.55;;;25.40;57.60;;;;;;5052197;28;20210;-72
2022/08/25 05:56:04;;;;;;;3.17;2.70;;;25.30;57.50;;;;;;5052371;28;20232;-73
2022/08/25 05:58:30;;;;;;;2.75;2.55;;;25.40;57.60;;;;;;5052025;28;20256;-73
2022/08/25 06:00:56;;;;;;;3.20;2.70;;;25.40;57.60;;;;;;5052015;28;20621;-74
2022/08/25 06:03:22;;;;;;;2.75;2.55;;;25.40;57.50;;;;;;5052659;28;20183;-72
2022/08/25 06:05:47;;;;;;;2.42;2.20;;;25.40;57.60;;;;;;5052007;28;20254;-72
2022/08/25 06:08:13;;;;;;;2.90;2.50;;;25.40;57.50;;;;;;5052137;28;20213;-68
2022/08/25 06:10:38;;;;;;;3.20;3.00;;;25.40;57.50;;;;;;5051884;28;20202;-66
2022/08/25 06:13:04;;;;;;;3.28;2.63;;;25.40;57.50;;;;;;5052450;28;20203;-67
2022/08/25 06:15:29;;;;;;;3.10;2.90;;;25.40;57.40;;;;;;5051891;28;20197;-67
2022/08/25 06:18:00;;;;;;;2.85;2.63;;;25.40;57.40;;;;;;5051736;28;20176;-67
2022/08/25 06:20:26;;;;;;;6.20;3.42;;;25.50;57.60;;;;;;5052133;28;20202;-67
2022/08/25 06:22:52;;;;;;;3.63;2.63;;;25.40;57.40;;;;;;5051907;28;20541;-67
2022/08/25 06:25:20;;;;;;;2.60;2.40;;;25.50;57.50;;;;;;5051851;28;20200;-67
2022/08/25 06:27:46;;;;;;;3.47;2.55;;;25.50;57.50;;;;;;5052038;28;20171;-69
2022/08/25 06:30:14;;;;;;;5.65;2.72;;;25.50;57.50;;;;;;5052899;28;20182;-69
2022/08/25 06:32:39;;;;;;;3.75;2.55;;;25.40;57.30;;;;;;5051757;28;20241;-68
2022/08/25 06:35:06;;;;;;;4.85;3.05;;;25.50;57.40;;;;;;5052276;28;20172;-69
2022/08/25 06:37:32;;;;;;;3.75;2.70;;;25.50;57.30;;;;;;5051977;28;20171;-67
2022/08/25 06:39:57;;;;;;;3.78;3.13;;;25.50;57.20;;;;;;5051564;28;20183;-67
2022/08/25 06:42:23;;;;;;;4.95;2.60;;;25.50;57.00;;;;;;5052015;28;20171;-66
2022/08/25 06:44:48;;;;;;;3.20;2.90;;;25.60;56.90;;;;;;5053191;28;20221;-66
2022/08/25 06:47:14;;;;;;;4.68;2.88;;;25.60;56.90;;;;;;5055536;28;20179;-67
2022/08/25 06:49:41;;;;;;;4.75;3.00;;;25.60;57.00;;;;;;5054241;28;20644;-66
2022/08/25 06:52:06;;;;;;;4.38;2.92;;;25.60;57.00;;;;;;5055523;28;20258;-65
2022/08/25 06:54:32;;;;;;;4.35;2.65;;;25.60;57.00;;;;;;5055160;28;20262;-67
2022/08/25 06:56:58;;;;;;;3.30;2.70;;;25.60;57.00;;;;;;5045344;28;20294;-67
2022/08/25 06:59:24;;;;;;;3.13;2.70;;;25.70;57.20;;;;;;5040227;28;20172;-66
2022/08/25 07:01:49;;;;;;;3.40;2.83;;;25.60;57.20;;;;;;5035077;28;20187;-66
2022/08/25 07:04:15;;;;;;;4.43;2.67;;;25.60;57.00;;;;;;5035303;28;20171;-67
2022/08/25 07:06:40;;;;;;;3.42;2.42;;;25.70;56.90;;;;;;5035496;28;20171;-66
2022/08/25 07:09:09;;;;;;;3.55;2.72;;;25.70;56.80;;;;;;5034810;28;20171;-66
2022/08/25 07:11:35;;;;;;;3.92;3.05;;;25.70;56.90;;;;;;5035063;28;20622;-65
2022/08/25 07:14:02;;;;;;;6.68;3.08;;;25.70;56.90;;;;;;5034855;28;20216;-66
2022/08/25 07:16:28;;;;;;;4.88;2.63;;;25.70;56.90;;;;;;5035514;28;20525;-67
2022/08/25 07:18:55;;;;;;;2.88;2.58;;;25.70;56.90;;;;;;5035070;28;20641;-67
2022/08/25 07:21:24;;;;;;;4.30;2.92;;;25.70;56.80;;;;;;5034588;28;20231;-67
2022/08/25 07:23:50;;;;;;;3.22;2.92;;;25.70;56.80;;;;;;5034997;28;20536;-67
2022/08/25 07:26:20;;;;;;;4.68;2.88;;;25.70;56.70;;;;;;5035106;28;20183;-68
2022/08/25 07:28:46;;;;;;;4.45;3.00;;;25.80;56.50;;;;;;5034750;28;20176;-68
2022/08/25 07:31:12;;;;;;;3.58;2.80;;;25.80;56.70;;;;;;5035432;28;20176;-68
2022/08/25 07:33:37;;;;;;;3.17;2.97;;;25.80;56.60;;;;;;5034906;28;20215;-68
2022/08/25 07:36:03;;;;;;;4.30;2.80;;;25.80;56.70;;;;;;5034384;28;20696;-69
2022/08/25 07:38:29;;;;;;;3.90;2.83;;;25.80;56.70;;;;;;5034937;28;20175;-68
2022/08/25 07:41:03;;;;;;;4.75;2.80;;;25.80;56.70;;;;;;5034650;28;20178;-69
2022/08/25 07:43:29;;;;;;;4.57;2.85;;;25.90;56.70;;;;;;5049795;28;20645;-68
2022/08/25 07:45:54;;;;;;;3.42;2.80;;;25.90;57.30;;;;;;5034294;28;20200;-68
2022/08/25 07:48:20;;;;;;;5.45;2.67;;;25.80;56.50;;;;;;5034894;28;20203;-68
2022/08/25 07:50:46;;;;;;;3.80;2.92;;;25.90;56.70;;;;;;5034034;28;20171;-68
2022/08/25 07:53:13;;;;;;;3.05;2.80;;;25.90;57.30;;;;;;5034267;28;20208;-68
2022/08/25 07:55:40;;;;;;;4.53;2.55;;;25.90;56.70;;;;;;5034286;28;20394;-68
2022/08/25 07:58:05;;;;;;;2.63;2.42;;;25.90;56.60;;;;;;5033471;28;20522;-68
2022/08/25 08:00:32;;;;;;;3.58;2.80;;;25.90;56.70;;;;;;5034276;28;20179;-69
2022/08/25 08:02:59;;;;;;;3.17;2.67;;;26.00;56.70;;;;;;5034424;28;20184;-68
2022/08/25 08:05:25;;;;;;;3.08;2.88;;;26.00;56.70;;;;;;5033816;28;20180;-68
2022/08/25 08:07:51;;;;;;;3.10;2.80;;;26.00;56.60;;;;;;5034042;28;20172;-67
2022/08/25 08:10:17;;;;;;;3.05;2.65;;;26.00;56.60;;;;;;5034035;28;20180;-67
2022/08/25 08:12:43;;;;;;;3.33;2.42;;;26.00;56.70;;;;;;5034205;28;20287;-67
2022/08/25 08:15:09;;;;;;;2.75;2.55;;;26.00;56.70;;;;;;5034109;28;20203;-67
2022/08/25 08:17:35;;;;;;;3.10;2.80;;;26.00;56.60;;;;;;5033707;28;20176;-68
2022/08/25 08:20:00;;;;;;;3.75;3.10;;;26.10;56.70;;;;;;5034053;28;20191;-68
2022/08/25 08:22:28;;;;;;;2.70;2.50;;;26.10;56.60;;;;;;5033524;28;20255;-67
2022/08/25 08:24:54;;;;;;;4.03;2.85;;;26.10;56.60;;;;;;5033559;28;20183;-68
2022/08/25 08:27:20;;;;;;;2.78;2.55;;;26.10;56.60;;;;;;5034075;28;20179;-67
2022/08/25 08:29:45;;;;;;;2.70;2.50;;;26.10;56.50;;;;;;5033752;28;20198;-67
2022/08/25 08:32:14;;;;;;;3.00;2.70;;;26.10;56.60;;;;;;5033284;28;20614;-69
2022/08/25 08:34:40;;;;;;;2.75;2.55;;;26.20;56.60;;;;;;5033729;28;20175;-69
2022/08/25 08:37:06;;;;;;;4.03;2.50;;;26.20;56.60;;;;;;5033306;28;20175;-68
2022/08/25 08:39:32;;;;;;;2.92;2.65;;;26.20;56.60;;;;;;5033149;28;20626;-68
2022/08/25 08:42:15;;;;;;;2.60;2.40;;;26.20;56.70;;;;;;5033502;28;20179;-68
2022/08/25 08:44:44;;;;;;;2.85;2.47;;;26.20;56.70;;;;;;5033705;28;20642;-68
2022/08/25 08:47:31;;;;;;;3.05;2.72;;;26.20;56.70;;;;;;5033147;28;20265;-68
2022/08/25 08:50:05;;;;;;;3.17;2.88;;;26.20;56.60;;;;;;5048626;28;20749;-68
2022/08/25 08:52:33;;;;;;;3.15;2.85;;;26.20;56.60;;;;;;5032919;28;20195;-68
2022/08/25 08:55:02;;;;;;;3.08;2.70;;;26.20;56.60;;;;;;5033213;28;20588;-69
2022/08/25 08:57:28;;;;;;;2.53;2.33;;;26.20;56.50;;;;;;5048267;28;20176;-67
2022/08/25 08:59:59;;;;;;;2.58;2.38;;;26.30;56.60;;;;;;5047940;28;20317;-68
2022/08/25 09:02:35;;;;;;;4.47;2.95;;;26.20;56.50;;;;;;5032323;28;20175;-68
2022/08/25 09:05:09;;;;;;;3.17;2.90;;;26.30;56.50;;;;;;5033093;28;20184;-68
2022/08/25 09:07:39;;;;;;;2.50;2.25;;;26.30;56.50;;;;;;5031570;28;20175;-66
2022/08/25 09:10:04;;;;;;;2.22;2.13;;;26.30;56.50;;;;;;5031644;28;20183;-66
2022/08/25 09:12:32;;;;;;;2.67;2.47;;;26.30;56.50;;;;;;5031629;28;20203;-67
2022/08/25 09:15:18;;;;;;;3.28;2.67;;;26.40;56.50;;;;;;5047823;28;20226;-67
2022/08/25 09:17:56;;;;;;;3.17;2.88;;;26.40;56.50;;;;;;5047065;28;20184;-67
2022/08/25 09:20:22;;;;;;;3.17;2.33;;;26.50;56.50;;;;;;5032877;28;20175;-67
2022/08/25 09:22:59;;;;;;;3.75;3.00;;;26.40;56.50;;;;;;5032204;28;20630;-67
2022/08/25 09:25:45;;;;;;;3.72;2.78;;;26.50;56.60;;;;;;5032932;28;20172;-67
2022/08/25 09:28:20;;;;;;;2.75;2.55;;;26.50;56.50;;;;;;5045808;28;20176;-67
2022/08/25 09:30:55;;;;;;;4.65;2.65;;;26.50;56.50;;;;;;5047931;28;20596;-68
2022/08/25 09:33:21;;;;;;;3.17;2.47;;;26.50;56.30;;;;;;5032474;28;20211;-68
2022/08/25 09:35:47;;;;;;;2.90;2.70;;;26.60;56.50;;;;;;5032295;28;20335;-68
2022/08/25 09:38:13;;;;;;;5.00;2.83;;;26.60;56.50;;;;;;5048153;28;20284;-68
2022/08/25 09:40:41;;;;;;;2.75;2.55;;;26.60;56.50;;;;;;5032774;28;20560;-69
2022/08/25 09:43:39;;;;;;;2.35;2.15;;;26.60;56.50;;;;;;5032150;28;20202;-68
2022/08/25 09:46:13;;;;;;;2.30;2.10;;;26.60;56.50;;;;;;5032538;28;20637;-68
2022/08/25 09:48:48;;;;;;;2.65;2.45;;;26.70;56.60;;;;;;5032562;28;20179;-68
2022/08/25 09:51:27;;;;;;;3.70;2.78;;;26.70;56.60;;;;;;5032661;28;20656;-68
2022/08/25 09:54:26;;;;;;;3.40;2.58;;;26.70;56.60;;;;;;5046620;28;20238;-68
2022/08/25 09:56:58;;;;;;;2.75;2.42;;;26.70;56.50;;;;;;4998635;28;20199;-68
2022/08/25 09:59:28;;;;;;;2.45;2.25;;;26.80;56.60;;;;;;5032322;28;20638;-68
2022/08/25 10:01:56;;;;;;;2.88;2.58;;;26.80;56.60;;;;;;5032533;28;20204;-68
2022/08/25 10:04:32;;;;;;;3.15;2.40;;;26.80;56.60;;;;;;5031912;28;20584;-68
2022/08/25 10:07:02;;;;;;;2.58;2.33;;;26.80;56.60;;;;;;5032447;28;20199;-67
2022/08/25 10:09:41;;;;;;;3.00;2.65;;;26.80;56.60;;;;;;5032568;28;20172;-67
2022/08/25 10:12:19;;;;;;;2.60;2.40;;;26.90;56.60;;;;;;5032161;28;20187;-68
2022/08/25 10:14:45;;;;;;;5.25;2.60;;;26.90;56.70;;;;;;5047305;28;20219;-67
2022/08/25 10:17:31;;;;;;;2.85;2.65;;;26.90;56.70;;;;;;5032245;28;20200;-67
2022/08/25 10:20:08;;;;;;;2.75;2.40;;;26.90;56.60;;;;;;5033739;28;20190;-68
2022/08/25 10:22:34;;;;;;;2.83;2.53;;;26.90;56.70;;;;;;5128392;22;20267;-62
2022/08/25 10:25:00;;;;;;;2.47;2.28;;;26.90;56.60;;;;;;5075031;28;20261;-62
2022/08/25 10:27:35;;;;;;;2.50;2.30;;;26.90;56.60;;;;;;5075429;28;20179;-62
2022/08/25 10:30:03;;;;;;;2.80;2.60;;;26.90;56.50;;;;;;5057475;28;20595;-62
2022/08/25 10:32:31;;;;;;;2.75;2.55;;;26.90;56.50;;;;;;5075023;28;20183;-62
2022/08/25 10:34:58;;;;;;;2.63;2.42;;;27.00;56.50;;;;;;5075373;28;20175;-62
2022/08/25 10:37:50;;;;;;;2.38;2.20;;;26.90;56.40;;;;;;5075246;28;20193;-62
2022/08/25 10:40:31;;;;;;;2.80;2.60;;;27.00;56.50;;;;;;5075684;28;20170;-63
2022/08/25 10:43:09;;;;;;;3.03;2.47;;;27.00;56.50;;;;;;5075132;28;20170;-63
2022/08/25 10:45:42;;;;;;;2.75;2.42;;;27.00;56.50;;;;;;5056951;28;20211;-63
2022/08/25 10:48:26;;;;;;;2.75;2.45;;;27.00;56.50;;;;;;5057552;28;20180;-63
2022/08/25 10:50:59;;;;;;;2.30;2.10;;;27.00;56.50;;;;;;5075032;28;20178;-63
2022/08/25 10:53:52;;;;;;;2.25;2.15;;;27.10;56.50;;;;;;5056865;28;20577;-62
2022/08/25 10:56:22;;;;;;;2.42;2.22;;;27.10;56.50;;;;;;5075039;28;20240;-62
2022/08/25 10:58:51;;;;;;;2.60;2.05;;;27.10;56.50;;;;;;5074557;28;20186;-63
2022/08/25 11:01:25;;;;;;;4.03;2.42;;;27.10;56.50;;;;;;5074680;28;20171;-63
2022/08/25 11:03:59;;;;;;;3.60;2.47;;;27.10;56.50;;;;;;5058003;28;20181;-62
2022/08/25 11:06:46;;;;;;;4.35;2.50;;;27.10;56.40;;;;;;5074561;28;20178;-62
2022/08/25 11:09:15;;;;;;;3.00;2.40;;;27.10;56.30;;;;;;5057005;28;20178;-61
2022/08/25 11:12:05;;;;;;;2.97;2.47;;;27.10;56.40;;;;;;5056895;28;20179;-62
2022/08/25 11:14:41;;;;;;;2.60;2.40;;;27.20;56.50;;;;;;5057053;28;20227;-62
2022/08/25 11:17:16;;;;;;;4.25;2.30;;;27.20;56.60;;;;;;5056959;28;20337;-62
2022/08/25 11:19:47;;;;;;;5.53;3.10;;;27.20;56.80;;;;;;5074199;28;20178;-62
2022/08/25 11:22:41;;;;;;;4.70;2.20;;;27.20;56.90;;;;;;5056408;28;20182;-62
2022/08/25 11:25:13;;;;;;;3.80;2.47;;;27.20;56.90;;;;;;5055989;28;20178;-62
2022/08/25 11:27:47;;;;;;;5.28;2.65;;;27.20;57.00;;;;;;5055750;28;20171;-62
2022/08/25 11:30:16;;;;;;;2.72;2.20;;;27.30;57.00;;;;;;5057170;28;20538;-62
2022/08/25 11:32:44;;;;;;;4.22;2.20;;;27.30;57.60;;;;;;5072982;28;20291;-62
2022/08/25 11:35:10;;;;;;;3.60;2.25;;;27.30;56.90;;;;;;5056170;28;20236;-62
2022/08/25 11:37:56;;;;;;;7.47;3.10;;;27.30;56.90;;;;;;5056349;28;20178;-62
2022/08/25 11:40:31;;;;;;;5.18;2.72;;;27.30;56.90;;;;;;5074015;28;20181;-63
2022/08/25 11:43:36;;;;;;;4.40;2.45;;;27.30;56.80;;;;;;5056157;28;20647;-63
2022/08/25 11:46:20;;;;;;;4.43;2.53;;;27.30;56.80;;;;;;5056046;28;20182;-63
2022/08/25 11:49:15;;;;;;;4.13;2.40;;;27.30;56.80;;;;;;5073589;28;20512;-62
2022/08/25 11:51:46;;;;;;;2.80;2.58;;;27.30;56.70;;;;;;5056244;28;20182;-62
2022/08/25 11:54:11;;;;;;;2.78;2.28;;;27.40;56.70;;;;;;5073696;28;20578;-62
2022/08/25 11:56:37;;;;;;;2.47;2.28;;;27.40;56.70;;;;;;5073522;28;20166;-62
2022/08/25 11:59:04;;;;;;;2.47;2.22;;;27.40;56.60;;;;;;5055985;28;20662;-63
2022/08/25 12:01:38;;;;;;;2.60;2.40;;;27.40;56.60;;;;;;5073861;28;20166;-62
2022/08/25 12:04:38;;;;;;;2.28;2.08;;;27.40;56.60;;;;;;5073282;28;20189;-63
2022/08/25 12:07:09;;;;;;;2.97;2.33;;;27.40;56.50;;;;;;5068641;28;20236;-62
2022/08/25 12:09:50;;;;;;;3.47;2.28;;;27.40;56.50;;;;;;5073187;28;20182;-62
2022/08/25 12:13:03;;;;;;;2.80;2.22;;;27.40;56.40;;;;;;5074022;28;20180;-63
2022/08/25 12:15:40;;;;;;;2.53;2.35;;;27.50;56.50;;;;;;5039440;28;20271;-63
2022/08/25 12:18:21;;;;;;;2.25;2.05;;;27.50;56.40;;;;;;5073266;28;20178;-63
2022/08/25 12:20:56;;;;;;;3.17;2.08;;;27.50;56.40;;;;;;5073606;28;20206;-63
2022/08/25 12:23:27;;;;;;;2.88;1.90;;;27.50;56.40;;;;;;5072572;28;20690;-63
2022/08/25 12:25:53;;;;;;;3.25;2.13;;;27.50;56.30;;;;;;5073346;28;20178;-63
2022/08/25 12:28:34;;;;;;;3.45;2.20;;;27.50;56.30;;;;;;5055340;28;20194;-62
2022/08/25 12:31:03;;;;;;;2.35;2.05;;;27.50;56.30;;;;;;5054622;28;20253;-62
2022/08/25 12:33:46;;;;;;;2.65;2.17;;;27.60;56.30;;;;;;5055493;28;20202;-62
2022/08/25 12:36:27;;;;;;;3.63;2.10;;;27.60;56.20;;;;;;5073110;28;20181;-62
2022/08/25 12:38:53;;;;;;;3.30;2.13;;;27.60;56.10;;;;;;5056877;28;20205;-63
2022/08/25 12:41:26;;;;;;;2.40;2.00;;;27.70;56.20;;;;;;5073325;28;20593;-63
2022/08/25 12:43:53;;;;;;;2.25;2.05;;;27.70;56.00;;;;;;5054601;28;20618;-63
2022/08/25 12:46:19;;;;;;;2.88;2.28;;;27.70;55.90;;;;;;5054401;28;20178;-63
2022/08/25 12:49:22;;;;;;;2.40;2.20;;;27.80;55.90;;;;;;5072863;28;20170;-62
2022/08/25 12:52:14;;;;;;;2.72;1.90;;;27.80;55.80;;;;;;5072333;28;20910;-62
2022/08/25 12:54:48;;;;;;;2.30;2.10;;;27.90;55.70;;;;;;5072312;28;20241;-62
2022/08/25 12:57:32;;;;;;;2.28;2.17;;;27.90;55.70;;;;;;5054800;28;20174;-62
2022/08/25 13:00:16;;;;;;;2.05;1.85;;;28.00;55.50;;;;;;5072445;28;20633;-63